createdAt,value
2023-04-01T00:01:18.595Z,99005.16
2023-04-01T00:03:46.385Z,99007.13
2023-04-01T00:06:19.065Z,99008.34
2023-04-01T00:08:47.291Z,99014.94
2023-04-01T00:11:15.983Z,99017.31
2023-04-01T00:13:43.703Z,99017.38
2023-04-01T00:16:21.129Z,99017.31
2023-04-01T00:18:51.487Z,99022.75
2023-04-01T00:21:19.966Z,99015.41
2023-04-01T00:23:47.250Z,99011.94
2023-04-01T00:26:15.539Z,99006.78
2023-04-01T00:28:42.710Z,99014.22
2023-04-01T00:31:11.328Z,99013.25
2023-04-01T00:33:41.697Z,99012.94
2023-04-01T00:36:18.528Z,99016.13
2023-04-01T00:38:46.806Z,99011.53
2023-04-01T00:41:16.929Z,99009.31
2023-04-01T00:43:48.904Z,99007.00
2023-04-01T00:46:16.565Z,99012.50
2023-04-01T00:48:55.747Z,99010.88
2023-04-01T00:51:29.798Z,99006.63
2023-04-01T00:53:59.992Z,99017.19
2023-04-01T00:56:42.426Z,99010.94
2023-04-01T00:59:17.019Z,99009.78
2023-04-01T01:01:44.090Z,99017.78
2023-04-01T01:04:29.859Z,99012.75
2023-04-01T01:07:41.435Z,99012.94
2023-04-01T01:10:23.350Z,99018.66
2023-04-01T01:13:57.772Z,99018.59
2023-04-01T01:16:35.145Z,99018.59
2023-04-01T01:19:49.067Z,99009.94
2023-04-01T01:23:00.648Z,99018.38
2023-04-01T01:26:07.937Z,99012.75
2023-04-01T01:29:02.391Z,99012.03
2023-04-01T01:31:43.899Z,99014.94
2023-04-01T01:34:48.011Z,99020.47
2023-04-01T01:37:22.015Z,99026.34
2023-04-01T01:40:02.636Z,99022.72
2023-04-01T01:42:32.328Z,99028.63
2023-04-01T01:45:01.526Z,99020.63
2023-04-01T01:47:30.549Z,99023.63
2023-04-01T01:49:59.011Z,99025.44
2023-04-01T01:52:29.312Z,99029.25
2023-04-01T01:54:59.145Z,99022.00
2023-04-01T01:57:38.973Z,99022.44
2023-04-01T02:00:15.981Z,99025.63
2023-04-01T02:02:48.598Z,99035.06
2023-04-01T02:05:26.971Z,99027.81
2023-04-01T02:08:31.314Z,99035.88
2023-04-01T02:11:08.670Z,99040.22
2023-04-01T02:14:04.327Z,99035.06
2023-04-01T02:17:09.093Z,99040.03
2023-04-01T02:19:46.940Z,99033.69
2023-04-01T02:22:25.265Z,99034.44
2023-04-01T02:24:59.500Z,99038.81
2023-04-01T02:27:26.992Z,99036.13
2023-04-01T02:29:54.504Z,99038.59
2023-04-01T02:32:22.236Z,99038.47
2023-04-01T02:34:50.358Z,99045.34
2023-04-01T02:37:18.307Z,99043.66
2023-04-01T02:39:45.573Z,99043.97
2023-04-01T02:42:12.706Z,99047.13
2023-04-01T02:44:39.815Z,99050.31
2023-04-01T02:47:07.052Z,99049.75
2023-04-01T02:49:34.127Z,99045.34
2023-04-01T02:52:01.193Z,99056.81
2023-04-01T02:54:28.243Z,99058.44
2023-04-01T02:56:55.368Z,99059.25
2023-04-01T02:59:22.485Z,99053.41
2023-04-01T03:01:52.474Z,99057.59
2023-04-01T03:04:19.526Z,99067.59
2023-04-01T03:06:46.692Z,99063.31
2023-04-01T03:09:13.884Z,99067.56
2023-04-01T03:11:41.798Z,99062.66
2023-04-01T03:14:08.885Z,99057.88
2023-04-01T03:16:36.235Z,99060.03
2023-04-01T03:19:03.404Z,99064.53
2023-04-01T03:21:30.904Z,99063.44
2023-04-01T03:23:58.138Z,99055.88
2023-04-01T03:26:27.596Z,99062.19
2023-04-01T03:28:55.926Z,99062.41
2023-04-01T03:31:23.936Z,99057.38
2023-04-01T03:33:51.538Z,99069.88
2023-04-01T03:36:19.284Z,99066.06
2023-04-01T03:38:46.506Z,99072.44
2023-04-01T03:41:18.423Z,99079.38
2023-04-01T03:43:46.349Z,99073.13
2023-04-01T03:46:19.520Z,99082.72
2023-04-01T03:48:47.104Z,99077.00
2023-04-01T03:51:14.502Z,99082.38
2023-04-01T03:53:41.529Z,99084.00
2023-04-01T03:56:10.071Z,99093.41
2023-04-01T03:58:37.558Z,99092.66
2023-04-01T04:01:13.616Z,99094.41
2023-04-01T04:03:40.819Z,99094.63
2023-04-01T04:06:13.800Z,99099.31
2023-04-01T04:08:41.131Z,99097.75
2023-04-01T04:11:08.991Z,99105.03
2023-04-01T04:13:36.943Z,99096.53
2023-04-01T04:16:05.261Z,99101.38
2023-04-01T04:18:32.428Z,99102.94
2023-04-01T04:20:59.531Z,99111.94
2023-04-01T04:23:26.767Z,99105.88
2023-04-01T04:26:08.069Z,99106.22
2023-04-01T04:28:35.617Z,99117.34
2023-04-01T04:31:05.773Z,99109.50
2023-04-01T04:33:33.938Z,99108.75
2023-04-01T04:36:02.589Z,99113.78
2023-04-01T04:38:30.310Z,99120.56
2023-04-01T04:40:57.626Z,99115.53
2023-04-01T04:43:24.840Z,99124.41
2023-04-01T04:45:52.761Z,99128.72
2023-04-01T04:48:21.122Z,99126.63
2023-04-01T04:50:50.843Z,99125.00
2023-04-01T04:53:19.845Z,99125.28
2023-04-01T04:55:50.628Z,99130.97
2023-04-01T04:58:19.329Z,99127.63
2023-04-01T05:00:46.946Z,99130.41
2023-04-01T05:03:15.792Z,99134.41
2023-04-01T05:05:52.859Z,99130.25
2023-04-01T05:08:20.651Z,99130.84
2023-04-01T05:10:48.121Z,99141.25
2023-04-01T05:13:15.469Z,99135.44
2023-04-01T05:15:42.553Z,99143.06
2023-04-01T05:18:09.700Z,99142.41
2023-04-01T05:20:37.017Z,99144.31
2023-04-01T05:23:04.560Z,99146.84
2023-04-01T05:25:31.811Z,99148.06
2023-04-01T05:27:59.065Z,99146.59
2023-04-01T05:30:28.988Z,99153.31
2023-04-01T05:32:56.123Z,99156.19
2023-04-01T05:35:24.112Z,99154.41
2023-04-01T05:37:53.552Z,99154.78
2023-04-01T05:40:21.429Z,99154.31
2023-04-01T05:42:48.742Z,99150.22
2023-04-01T05:45:16.778Z,99153.03
2023-04-01T05:47:43.958Z,99160.00
2023-04-01T05:50:11.911Z,99150.41
2023-04-01T05:52:39.904Z,99167.63
2023-04-01T05:55:07.829Z,99161.75
2023-04-01T05:57:35.734Z,99164.97
2023-04-01T06:00:06.168Z,99167.25
2023-04-01T06:02:33.327Z,99165.00
2023-04-01T06:05:26.314Z,99170.81
2023-04-01T06:08:02.107Z,99175.16
2023-04-01T06:11:26.507Z,99168.94
2023-04-01T06:14:38.205Z,99172.47
2023-04-01T06:17:17.197Z,99178.28
2023-04-01T06:20:33.546Z,99182.09
2023-04-01T06:23:24.421Z,99190.53
2023-04-01T06:26:31.796Z,99186.69
2023-04-01T06:29:44.001Z,99189.97
2023-04-01T06:32:51.505Z,99200.84
2023-04-01T06:36:16.423Z,99204.66
2023-04-01T06:39:35.826Z,99203.41
2023-04-01T06:42:50.598Z,99205.66
2023-04-01T06:45:57.935Z,99209.34
2023-04-01T06:48:56.564Z,99209.88
2023-04-01T06:52:02.953Z,99217.63
2023-04-01T06:54:45.256Z,99223.84
2023-04-01T06:57:47.579Z,99224.72
2023-04-01T07:00:40.006Z,99219.28
2023-04-01T07:03:34.077Z,99228.84
2023-04-01T07:06:13.261Z,99223.34
2023-04-01T07:08:45.005Z,99227.16
2023-04-01T07:11:36.669Z,99223.59
2023-04-01T07:14:26.812Z,99232.94
2023-04-01T07:17:16.786Z,99233.97
2023-04-01T07:20:02.058Z,99238.66
2023-04-01T07:22:52.605Z,99232.16
2023-04-01T07:25:37.774Z,99238.63
2023-04-01T07:28:17.747Z,99239.63
2023-04-01T07:31:28.957Z,99245.38
2023-04-01T07:34:42.910Z,99245.78
2023-04-01T07:38:15.860Z,99249.38
2023-04-01T07:41:28.568Z,99254.94
2023-04-01T07:44:04.003Z,99251.66
2023-04-01T07:47:23.742Z,99260.09
2023-04-01T07:50:15.383Z,99265.41
2023-04-01T07:52:57.206Z,99264.16
2023-04-01T07:55:55.433Z,99277.88
2023-04-01T07:58:46.883Z,99278.16
2023-04-01T08:01:52.331Z,99278.69
2023-04-01T08:04:46.031Z,99283.75
2023-04-01T08:07:32.975Z,99279.34
2023-04-01T08:10:33.789Z,99283.03
2023-04-01T08:14:02.751Z,99290.91
2023-04-01T08:17:09.000Z,99291.22
2023-04-01T08:19:57.367Z,99296.31
2023-04-01T08:22:58.142Z,99293.91
2023-04-01T08:25:30.706Z,99297.09
2023-04-01T08:28:38.815Z,99308.56
2023-04-01T08:32:02.294Z,99301.38
2023-04-01T08:35:10.508Z,99309.84
2023-04-01T08:37:42.307Z,99321.75
2023-04-01T08:40:27.414Z,99320.63
2023-04-01T08:43:21.821Z,99317.53
2023-04-01T08:46:41.072Z,99319.75
2023-04-01T08:56:43.553Z,99333.69
2023-04-01T08:59:35.711Z,99332.41
2023-04-01T09:02:47.097Z,99332.84
2023-04-01T09:05:51.238Z,99344.47
2023-04-01T09:08:47.400Z,99342.44
2023-04-01T09:11:34.977Z,99348.63
2023-04-01T09:14:32.436Z,99347.34
2023-04-01T09:17:52.896Z,99349.53
2023-04-01T09:21:05.320Z,99355.19
2023-04-01T09:24:13.997Z,99361.41
2023-04-01T09:27:05.181Z,99360.28
2023-04-01T09:30:28.992Z,99361.38
2023-04-01T09:33:52.852Z,99365.66
2023-04-01T09:36:41.631Z,99369.94
2023-04-01T09:39:36.151Z,99369.88
2023-04-01T09:43:03.791Z,99373.47
2023-04-01T09:45:49.973Z,99375.13
2023-04-01T09:48:51.392Z,99383.94
2023-04-01T09:51:37.334Z,99385.97
2023-04-01T09:54:36.198Z,99386.88
2023-04-01T09:57:56.382Z,99393.38
2023-04-01T10:00:26.400Z,99393.97
2023-04-01T10:03:24.792Z,99409.75
2023-04-01T10:06:32.121Z,99398.25
2023-04-01T10:09:53.296Z,99400.56
2023-04-01T10:12:41.387Z,99401.91
2023-04-01T10:15:39.122Z,99402.78
2023-04-01T10:18:36.185Z,99409.41
2023-04-01T10:21:40.323Z,99417.50
2023-04-01T10:25:02.732Z,99416.47
2023-04-01T10:28:01.871Z,99422.81
2023-04-01T10:31:24.263Z,99421.91
2023-04-01T10:34:53.401Z,99425.44
2023-04-01T10:37:59.810Z,99415.91
2023-04-01T10:41:10.651Z,99428.78
2023-04-01T10:44:07.473Z,99425.28
2023-04-01T10:47:30.521Z,99422.81
2023-04-01T10:51:02.618Z,99430.13
2023-04-01T10:54:29.002Z,99437.84
2023-04-01T10:57:31.233Z,99434.94
2023-04-01T11:00:52.429Z,99434.03
2023-04-01T11:03:56.519Z,99442.66
2023-04-01T11:07:13.877Z,99436.72
2023-04-01T11:10:18.071Z,99445.50
2023-04-01T11:13:47.312Z,99447.75
2023-04-01T11:17:18.011Z,99447.81
2023-04-01T11:20:46.390Z,99460.91
2023-04-01T11:23:44.018Z,99451.13
2023-04-01T11:26:30.516Z,99459.50
2023-04-01T11:29:40.541Z,99466.53
2023-04-01T11:32:56.933Z,99466.88
2023-04-01T11:36:15.967Z,99468.28
2023-04-01T11:39:21.607Z,99478.31
2023-04-01T11:42:36.882Z,99488.03
2023-04-01T11:45:49.339Z,99483.09
2023-04-01T11:48:46.449Z,99480.22
2023-04-01T11:52:14.889Z,99481.50
2023-04-01T11:55:29.498Z,99493.16
2023-04-01T11:59:02.722Z,99494.09
2023-04-01T12:01:56.813Z,99511.78
2023-04-01T12:04:55.406Z,99514.53
2023-04-01T12:08:27.591Z,99504.63
2023-04-01T12:11:09.182Z,99512.06
2023-04-01T12:14:24.694Z,99509.56
2023-04-01T12:17:20.472Z,99514.97
2023-04-01T12:20:12.914Z,99513.75
2023-04-01T12:23:36.167Z,99521.78
2023-04-01T12:26:28.780Z,99534.34
2023-04-01T12:29:44.764Z,99532.31
2023-04-01T12:33:04.153Z,99535.97
2023-04-01T12:36:31.340Z,99535.81
2023-04-01T12:39:40.661Z,99538.44
2023-04-01T12:43:03.591Z,99538.38
2023-04-01T12:45:32.864Z,99554.59
2023-04-01T12:48:42.844Z,99554.06
2023-04-01T12:51:46.495Z,99560.38
2023-04-01T12:54:42.194Z,99562.63
2023-04-01T12:57:58.623Z,99567.44
2023-04-01T13:00:32.392Z,99573.56
2023-04-01T13:03:35.262Z,99574.16
2023-04-01T13:06:52.942Z,99572.97
2023-04-01T13:09:48.041Z,99576.72
2023-04-01T13:12:49.976Z,99580.84
2023-04-01T13:15:51.758Z,99578.41
2023-04-01T13:18:50.862Z,99582.53
2023-04-01T13:21:36.484Z,99585.38
2023-04-01T13:24:06.952Z,99592.34
2023-04-01T13:27:09.463Z,99600.84
2023-04-01T13:30:24.389Z,99598.47
2023-04-01T13:33:41.473Z,99599.28
2023-04-01T13:37:28.387Z,99611.44
2023-04-01T13:41:01.698Z,99608.66
2023-04-01T13:44:01.187Z,99612.09
2023-04-01T13:46:40.034Z,99620.56
2023-04-01T13:49:56.226Z,99620.31
2023-04-01T13:52:57.427Z,99623.38
2023-04-01T13:55:56.591Z,99627.31
2023-04-01T13:59:27.658Z,99639.94
2023-04-01T14:03:02.007Z,99634.91
2023-04-01T14:06:43.455Z,99640.34
2023-04-01T14:09:37.413Z,99646.38
2023-04-01T14:12:47.649Z,99642.88
2023-04-01T14:15:26.862Z,99644.00
2023-04-01T14:19:00.649Z,99658.78
2023-04-01T14:21:57.781Z,99660.34
2023-04-01T14:24:58.863Z,99664.44
2023-04-01T14:28:15.982Z,99671.72
2023-04-01T14:31:39.660Z,99669.16
2023-04-01T14:47:40.945Z,99690.41
2023-04-01T14:50:20.100Z,99693.28
2023-04-01T14:53:08.838Z,99695.66
2023-04-01T14:55:44.581Z,99698.69
2023-04-01T14:58:19.370Z,99705.78
2023-04-01T15:01:07.922Z,99716.19
2023-04-01T15:04:27.561Z,99719.47
2023-04-01T15:08:00.947Z,99712.53
2023-04-01T15:10:54.599Z,99712.00
2023-04-01T15:13:55.261Z,99722.16
2023-04-01T15:16:52.685Z,99715.34
2023-04-01T15:19:43.755Z,99734.75
2023-04-01T15:22:53.865Z,99738.47
2023-04-01T15:25:52.376Z,99742.59
2023-04-01T15:29:06.034Z,99751.06
2023-04-01T15:32:06.090Z,99751.84
2023-04-01T15:34:59.707Z,99727.88
2023-04-01T15:37:43.446Z,99751.78
2023-04-01T15:40:46.844Z,99752.97
2023-04-01T15:43:51.663Z,99759.59
2023-04-01T15:46:49.683Z,99765.75
2023-04-01T15:49:48.211Z,99770.69
2023-04-01T15:52:48.979Z,99769.06
2023-04-01T15:55:56.219Z,99777.72
2023-04-01T15:58:59.386Z,99780.28
2023-04-01T16:02:38.982Z,99799.81
2023-04-01T16:05:52.746Z,99790.09
2023-04-01T16:09:11.570Z,99799.31
2023-04-01T16:11:51.442Z,99799.81
2023-04-01T16:14:46.976Z,99810.00
2023-04-01T16:17:54.797Z,99809.03
2023-04-01T16:20:46.274Z,99813.09
2023-04-01T16:23:38.359Z,99808.09
2023-04-01T16:26:59.665Z,99819.91
2023-04-01T16:29:54.951Z,99819.28
2023-04-01T16:33:00.745Z,99831.22
2023-04-01T16:35:49.610Z,99844.25
2023-04-01T16:38:39.262Z,99841.53
2023-04-01T16:41:36.705Z,99842.94
2023-04-01T16:44:28.435Z,99860.72
2023-04-01T16:47:10.578Z,99852.44
2023-04-01T16:50:20.647Z,99853.03
2023-04-01T16:53:18.181Z,99864.66
2023-04-01T16:56:06.219Z,99875.88
2023-04-01T16:58:55.359Z,99882.66
2023-04-01T17:01:52.838Z,99881.63
2023-04-01T17:04:53.268Z,99899.72
2023-04-01T17:07:37.802Z,99894.25
2023-04-01T17:10:51.876Z,99899.03
2023-04-01T17:13:46.973Z,99898.81
2023-04-01T17:16:45.919Z,99920.41
2023-04-01T17:19:49.933Z,99908.78
2023-04-01T17:22:54.077Z,99908.78
2023-04-01T17:25:33.269Z,99933.28
2023-04-01T17:28:41.210Z,99939.28
2023-04-01T17:31:27.039Z,99942.72
2023-04-01T17:34:15.617Z,99962.41
2023-04-01T17:37:30.902Z,99950.84
2023-04-01T17:40:36.404Z,99959.94
2023-04-01T17:43:48.665Z,99955.53
2023-04-01T17:46:48.049Z,99956.06
2023-04-01T17:49:43.414Z,99969.22
2023-04-01T17:53:13.239Z,99974.75
2023-04-01T17:56:09.413Z,99986.47
2023-04-01T17:59:16.222Z,99979.22
2023-04-01T18:02:08.281Z,99988.66
2023-04-01T18:05:17.236Z,100004.63
2023-04-01T18:08:34.763Z,100002.25
2023-04-01T18:11:55.700Z,100007.34
2023-04-01T18:15:12.851Z,100023.84
2023-04-01T18:18:04.844Z,100020.41
2023-04-01T18:20:55.427Z,100033.34
2023-04-01T18:24:02.328Z,100034.97
2023-04-01T18:26:38.027Z,100040.06
2023-04-01T18:29:18.884Z,100043.78
2023-04-01T18:31:56.091Z,100054.16
2023-04-01T18:35:30.205Z,100048.53
2023-04-01T18:38:41.271Z,100061.53
2023-04-01T18:42:03.459Z,100062.03
2023-04-01T18:44:58.866Z,100069.63
2023-04-01T18:48:06.915Z,100081.03
2023-04-01T18:51:03.238Z,100079.63
2023-04-01T18:53:54.742Z,100085.16
2023-04-01T18:56:35.447Z,100086.75
2023-04-01T18:59:30.274Z,100103.03
2023-04-01T19:02:32.787Z,100106.75
2023-04-01T19:05:17.582Z,100107.59
2023-04-01T19:07:49.267Z,100115.09
2023-04-01T19:10:55.340Z,100122.00
2023-04-01T19:13:48.654Z,100122.81
2023-04-01T19:17:03.810Z,100130.38
2023-04-01T19:20:17.633Z,100138.81
2023-04-01T19:23:08.809Z,100139.66
2023-04-01T19:25:50.701Z,100121.59
2023-04-01T19:28:50.443Z,100140.84
2023-04-01T19:32:20.474Z,100136.28
2023-04-01T19:35:33.517Z,100140.09
2023-04-01T19:38:35.788Z,100154.50
2023-04-01T19:41:49.349Z,100163.53
2023-04-01T19:44:48.882Z,100152.44
2023-04-01T19:48:09.081Z,100176.72
2023-04-01T19:51:07.105Z,100179.84
2023-04-01T19:54:39.408Z,100188.47
2023-04-01T19:57:47.724Z,100187.97
2023-04-01T20:00:54.153Z,100197.41
2023-04-01T20:03:51.119Z,100201.09
2023-04-01T20:06:58.078Z,100201.59
2023-04-01T20:10:11.126Z,100219.22
2023-04-01T20:13:27.087Z,100224.50
2023-04-01T20:16:09.214Z,100225.19
2023-04-01T20:19:03.002Z,100236.31
2023-04-01T20:21:48.855Z,100244.09
2023-04-01T20:24:15.929Z,100252.91
2023-04-01T20:26:51.524Z,100252.63
2023-04-01T20:30:11.104Z,100257.44
2023-04-01T20:33:02.979Z,100258.53
2023-04-01T20:36:17.152Z,100268.44
2023-04-01T20:40:02.368Z,100269.84
2023-04-01T20:43:49.907Z,100279.28
2023-04-01T20:47:13.441Z,100279.78
2023-04-01T20:50:28.239Z,100288.44
2023-04-01T20:53:21.572Z,100292.25
2023-04-01T20:55:51.627Z,100293.66
2023-04-01T20:59:07.856Z,100300.19
2023-04-01T21:02:06.598Z,100302.13
2023-04-01T21:05:18.384Z,100315.19
2023-04-01T21:08:34.874Z,100313.28
2023-04-01T21:12:06.197Z,100321.13
2023-04-01T21:15:05.899Z,100330.88
2023-04-01T21:18:22.207Z,100328.47
2023-04-01T21:21:10.501Z,100334.16
2023-04-01T21:23:50.996Z,100332.53
2023-04-01T21:27:03.029Z,100342.78
2023-04-01T21:30:06.412Z,100342.81
2023-04-01T21:33:04.518Z,100352.91
2023-04-01T21:36:34.304Z,100359.94
2023-04-01T21:39:54.233Z,100363.94
2023-04-01T21:43:00.394Z,100372.34
2023-04-01T21:46:40.731Z,100377.22
2023-04-01T21:49:22.693Z,100375.72
2023-04-01T21:53:08.225Z,100380.41
2023-04-01T21:56:16.934Z,100392.09
2023-04-01T21:59:44.300Z,100390.97
2023-04-01T22:02:46.736Z,100393.13
2023-04-01T22:05:37.706Z,100393.97
2023-04-01T22:08:39.480Z,100394.19
2023-04-01T22:11:37.751Z,100411.25
2023-04-01T22:14:15.125Z,100404.72
2023-04-01T22:17:31.473Z,100421.44
2023-04-01T22:20:40.210Z,100418.31
2023-04-01T22:23:28.384Z,100432.13
2023-04-01T22:26:53.354Z,100424.78
2023-04-01T22:29:54.026Z,100428.50
2023-04-01T22:32:36.512Z,100437.03
2023-04-01T22:35:38.238Z,100440.34
2023-04-01T22:39:42.270Z,100439.13
2023-04-01T22:42:46.863Z,100451.41
2023-04-01T22:45:13.810Z,100450.31
2023-04-01T22:48:06.608Z,100447.97
2023-04-01T22:51:16.663Z,100455.25
2023-04-01T22:54:13.973Z,100452.91
2023-04-01T22:57:01.005Z,100467.50
2023-04-01T22:59:45.902Z,100466.09
2023-04-01T23:02:34.035Z,100458.34
2023-04-01T23:05:09.779Z,100485.06
2023-04-01T23:08:03.811Z,100474.13
2023-04-01T23:10:58.700Z,100492.97
2023-04-01T23:13:53.589Z,100480.63
2023-04-01T23:16:41.007Z,100479.69
2023-04-01T23:19:29.805Z,100477.00
2023-04-01T23:22:47.082Z,100498.56
2023-04-01T23:25:56.409Z,100503.19
2023-04-01T23:28:49.229Z,100517.22
2023-04-01T23:31:44.065Z,100514.19
2023-04-01T23:34:14.031Z,100522.22
2023-04-01T23:36:48.479Z,100522.94
2023-04-01T23:39:44.764Z,100517.09
2023-04-01T23:42:29.458Z,100532.75
2023-04-01T23:45:21.502Z,100537.28
2023-04-01T23:47:51.467Z,100532.59
2023-04-01T23:50:26.448Z,100542.03
2023-04-01T23:53:25.746Z,100553.34
2023-04-01T23:55:57.128Z,100554.53
2023-04-01T23:58:39.351Z,100560.00
